sensor_id;sensor_type;location;lat;lon;timestamp;temperature;humidity
10873;DHT22;34586;53.616;10.032;2022-08-19T00:01:48;20.20;5.30
10873;DHT22;34586;53.616;10.032;2022-08-19T00:04:16;20.20;1.00
10873;DHT22;34586;53.616;10.032;2022-08-19T00:06:43;20.20;1.00
10873;DHT22;34586;53.616;10.032;2022-08-19T00:09:15;20.10;1.00
10873;DHT22;34586;53.616;10.032;2022-08-19T00:11:42;20.10;5.40
10873;DHT22;34586;53.616;10.032;2022-08-19T00:14:10;20.20;1.00
10873;DHT22;34586;53.616;10.032;2022-08-19T00:16:39;20.10;10.20
10873;DHT22;34586;53.616;10.032;2022-08-19T00:19:06;20.10;12.50
10873;DHT22;34586;53.616;10.032;2022-08-19T00:21:33;20.10;10.00
10873;DHT22;34586;53.616;10.032;2022-08-19T00:24:06;20.10;11.50
10873;DHT22;34586;53.616;10.032;2022-08-19T00:26:32;20.20;4.90
10873;DHT22;34586;53.616;10.032;2022-08-19T00:28:58;20.10;16.00
10873;DHT22;34586;53.616;10.032;2022-08-19T00:31:26;20.10;26.70
10873;DHT22;34586;53.616;10.032;2022-08-19T00:33:53;20.10;29.80
10873;DHT22;34586;53.616;10.032;2022-08-19T00:36:19;20.10;42.70
10873;DHT22;34586;53.616;10.032;2022-08-19T00:38:45;20.10;22.30
10873;DHT22;34586;53.616;10.032;2022-08-19T00:41:17;20.10;24.20
10873;DHT22;34586;53.616;10.032;2022-08-19T00:44:14;20.10;29.90
10873;DHT22;34586;53.616;10.032;2022-08-19T00:46:43;20.10;15.00
10873;DHT22;34586;53.616;10.032;2022-08-19T00:49:14;20.10;33.20
10873;DHT22;34586;53.616;10.032;2022-08-19T00:51:41;20.00;46.20
10873;DHT22;34586;53.616;10.032;2022-08-19T00:54:07;20.10;51.10
10873;DHT22;34586;53.616;10.032;2022-08-19T00:56:35;20.00;18.40
10873;DHT22;34586;53.616;10.032;2022-08-19T00:59:01;20.00;14.90
10873;DHT22;34586;53.616;10.032;2022-08-19T01:01:27;20.10;20.90
10873;DHT22;34586;53.616;10.032;2022-08-19T01:03:53;20.00;27.00
10873;DHT22;34586;53.616;10.032;2022-08-19T01:06:19;20.00;39.30
10873;DHT22;34586;53.616;10.032;2022-08-19T01:08:44;20.10;27.30
10873;DHT22;34586;53.616;10.032;2022-08-19T01:11:10;20.10;24.50
10873;DHT22;34586;53.616;10.032;2022-08-19T01:13:37;20.00;29.20
10873;DHT22;34586;53.616;10.032;2022-08-19T01:16:05;20.00;25.30
10873;DHT22;34586;53.616;10.032;2022-08-19T01:18:32;20.10;18.00
10873;DHT22;34586;53.616;10.032;2022-08-19T01:21:05;20.10;29.80
10873;DHT22;34586;53.616;10.032;2022-08-19T01:23:32;20.10;49.70
10873;DHT22;34586;53.616;10.032;2022-08-19T01:26:19;20.00;46.40
10873;DHT22;34586;53.616;10.032;2022-08-19T01:28:47;20.00;50.00
10873;DHT22;34586;53.616;10.032;2022-08-19T01:31:16;20.00;59.30
10873;DHT22;34586;53.616;10.032;2022-08-19T01:33:42;20.10;68.50
10873;DHT22;34586;53.616;10.032;2022-08-19T01:36:12;20.00;66.40
10873;DHT22;34586;53.616;10.032;2022-08-19T01:38:41;20.00;65.60
10873;DHT22;34586;53.616;10.032;2022-08-19T01:41:09;19.90;65.20
10873;DHT22;34586;53.616;10.032;2022-08-19T01:43:34;20.00;74.30
10873;DHT22;34586;53.616;10.032;2022-08-19T01:46:00;20.00;83.20
10873;DHT22;34586;53.616;10.032;2022-08-19T01:48:26;20.00;71.30
10873;DHT22;34586;53.616;10.032;2022-08-19T01:50:54;20.00;79.70
10873;DHT22;34586;53.616;10.032;2022-08-19T01:53:21;19.90;86.70
10873;DHT22;34586;53.616;10.032;2022-08-19T01:55:46;19.90;96.80
10873;DHT22;34586;53.616;10.032;2022-08-19T01:58:20;19.90;95.90
10873;DHT22;34586;53.616;10.032;2022-08-19T02:00:47;20.00;94.30
10873;DHT22;34586;53.616;10.032;2022-08-19T02:03:14;20.00;92.30
10873;DHT22;34586;53.616;10.032;2022-08-19T02:05:40;19.80;99.90
10873;DHT22;34586;53.616;10.032;2022-08-19T02:08:06;19.90;99.90
10873;DHT22;34586;53.616;10.032;2022-08-19T02:10:32;19.90;99.90
10873;DHT22;34586;53.616;10.032;2022-08-19T02:12:58;19.90;99.90
10873;DHT22;34586;53.616;10.032;2022-08-19T02:15:23;19.90;99.90
10873;DHT22;34586;53.616;10.032;2022-08-19T02:17:51;19.90;99.90
10873;DHT22;34586;53.616;10.032;2022-08-19T02:20:17;19.90;99.90
10873;DHT22;34586;53.616;10.032;2022-08-19T02:22:43;19.90;99.90
10873;DHT22;34586;53.616;10.032;2022-08-19T02:25:10;19.80;99.90
10873;DHT22;34586;53.616;10.032;2022-08-19T02:27:37;19.80;99.90
10873;DHT22;34586;53.616;10.032;2022-08-19T02:30:03;19.80;99.90
10873;DHT22;34586;53.616;10.032;2022-08-19T02:32:29;19.80;99.90
10873;DHT22;34586;53.616;10.032;2022-08-19T02:34:56;19.80;99.90
10873;DHT22;34586;53.616;10.032;2022-08-19T02:37:21;19.80;99.90
10873;DHT22;34586;53.616;10.032;2022-08-19T02:40:13;19.80;99.90
10873;DHT22;34586;53.616;10.032;2022-08-19T02:42:40;19.80;99.90
10873;DHT22;34586;53.616;10.032;2022-08-19T02:45:06;19.80;99.90
10873;DHT22;34586;53.616;10.032;2022-08-19T02:47:33;19.80;99.90
10873;DHT22;34586;53.616;10.032;2022-08-19T02:50:01;19.70;99.90
10873;DHT22;34586;53.616;10.032;2022-08-19T02:52:27;19.70;99.90
10873;DHT22;34586;53.616;10.032;2022-08-19T02:54:53;19.70;99.90
10873;DHT22;34586;53.616;10.032;2022-08-19T02:57:20;19.70;99.90
10873;DHT22;34586;53.616;10.032;2022-08-19T02:59:46;19.70;99.90
10873;DHT22;34586;53.616;10.032;2022-08-19T03:02:12;19.70;99.90
10873;DHT22;34586;53.616;10.032;2022-08-19T03:04:37;19.70;99.90
10873;DHT22;34586;53.616;10.032;2022-08-19T03:07:03;19.70;99.90
10873;DHT22;34586;53.616;10.032;2022-08-19T03:09:28;19.70;99.90
10873;DHT22;34586;53.616;10.032;2022-08-19T03:11:55;19.60;99.90
10873;DHT22;34586;53.616;10.032;2022-08-19T03:14:21;19.60;99.90
10873;DHT22;34586;53.616;10.032;2022-08-19T03:16:49;19.60;99.90
10873;DHT22;34586;53.616;10.032;2022-08-19T03:19:19;19.60;99.90
10873;DHT22;34586;53.616;10.032;2022-08-19T03:21:46;19.60;99.90
10873;DHT22;34586;53.616;10.032;2022-08-19T03:24:13;19.60;99.90
10873;DHT22;34586;53.616;10.032;2022-08-19T03:26:41;19.60;99.90
10873;DHT22;34586;53.616;10.032;2022-08-19T03:29:06;19.60;99.90
10873;DHT22;34586;53.616;10.032;2022-08-19T03:31:33;19.60;99.90
10873;DHT22;34586;53.616;10.032;2022-08-19T03:33:59;19.60;99.90
10873;DHT22;34586;53.616;10.032;2022-08-19T03:36:26;19.60;99.90
10873;DHT22;34586;53.616;10.032;2022-08-19T03:38:55;19.60;99.90
10873;DHT22;34586;53.616;10.032;2022-08-19T03:41:23;19.60;99.90
10873;DHT22;34586;53.616;10.032;2022-08-19T03:43:50;19.60;99.90
10873;DHT22;34586;53.616;10.032;2022-08-19T03:46:19;19.60;99.90
10873;DHT22;34586;53.616;10.032;2022-08-19T03:48:46;19.60;99.90
10873;DHT22;34586;53.616;10.032;2022-08-19T03:51:18;19.50;99.90
10873;DHT22;34586;53.616;10.032;2022-08-19T03:53:45;19.50;99.90
10873;DHT22;34586;53.616;10.032;2022-08-19T03:56:11;19.50;99.90
10873;DHT22;34586;53.616;10.032;2022-08-19T03:58:39;19.50;99.90
10873;DHT22;34586;53.616;10.032;2022-08-19T04:01:10;19.50;99.90
10873;DHT22;34586;53.616;10.032;2022-08-19T04:03:37;19.50;99.90
10873;DHT22;34586;53.616;10.032;2022-08-19T04:08:40;19.50;99.90
10873;DHT22;34586;53.616;10.032;2022-08-19T04:11:12;19.50;99.90
10873;DHT22;34586;53.616;10.032;2022-08-19T04:13:38;19.50;99.90
10873;DHT22;34586;53.616;10.032;2022-08-19T04:16:05;19.40;99.90
10873;DHT22;34586;53.616;10.032;2022-08-19T04:18:32;19.40;99.90
10873;DHT22;34586;53.616;10.032;2022-08-19T04:20:59;19.50;99.90
10873;DHT22;34586;53.616;10.032;2022-08-19T04:23:26;19.40;99.90
10873;DHT22;34586;53.616;10.032;2022-08-19T04:25:53;19.50;99.90
10873;DHT22;34586;53.616;10.032;2022-08-19T04:28:19;19.50;99.90
10873;DHT22;34586;53.616;10.032;2022-08-19T04:30:49;19.30;99.90
10873;DHT22;34586;53.616;10.032;2022-08-19T04:33:17;19.40;99.90
10873;DHT22;34586;53.616;10.032;2022-08-19T04:35:46;19.40;99.90
10873;DHT22;34586;53.616;10.032;2022-08-19T04:38:14;19.50;99.90
10873;DHT22;34586;53.616;10.032;2022-08-19T04:40:45;19.40;99.90
10873;DHT22;34586;53.616;10.032;2022-08-19T04:43:31;19.40;99.90
10873;DHT22;34586;53.616;10.032;2022-08-19T04:45:57;19.50;99.90
10873;DHT22;34586;53.616;10.032;2022-08-19T04:48:22;19.40;99.90
10873;DHT22;34586;53.616;10.032;2022-08-19T04:50:56;19.40;99.90
10873;DHT22;34586;53.616;10.032;2022-08-19T04:53:33;19.50;99.90
10873;DHT22;34586;53.616;10.032;2022-08-19T04:56:03;19.40;99.90
10873;DHT22;34586;53.616;10.032;2022-08-19T04:58:29;19.40;99.90
10873;DHT22;34586;53.616;10.032;2022-08-19T05:00:55;19.50;99.90
10873;DHT22;34586;53.616;10.032;2022-08-19T05:03:20;19.50;99.90
10873;DHT22;34586;53.616;10.032;2022-08-19T05:05:48;19.50;99.90
10873;DHT22;34586;53.616;10.032;2022-08-19T05:08:15;19.50;99.90
10873;DHT22;34586;53.616;10.032;2022-08-19T05:10:49;19.50;99.90
10873;DHT22;34586;53.616;10.032;2022-08-19T05:13:16;19.50;99.90
10873;DHT22;34586;53.616;10.032;2022-08-19T05:15:43;19.50;99.90
10873;DHT22;34586;53.616;10.032;2022-08-19T05:18:09;19.50;99.90
10873;DHT22;34586;53.616;10.032;2022-08-19T05:20:53;19.50;99.90
10873;DHT22;34586;53.616;10.032;2022-08-19T05:23:38;19.50;99.90
10873;DHT22;34586;53.616;10.032;2022-08-19T05:26:04;19.60;99.90
10873;DHT22;34586;53.616;10.032;2022-08-19T05:28:30;19.60;99.90
10873;DHT22;34586;53.616;10.032;2022-08-19T05:30:55;19.60;99.90
10873;DHT22;34586;53.616;10.032;2022-08-19T05:33:22;19.60;99.90
10873;DHT22;34586;53.616;10.032;2022-08-19T05:35:48;19.60;99.90
10873;DHT22;34586;53.616;10.032;2022-08-19T05:38:16;19.60;99.90
10873;DHT22;34586;53.616;10.032;2022-08-19T05:40:42;19.50;99.90
10873;DHT22;34586;53.616;10.032;2022-08-19T05:43:13;19.50;99.90
10873;DHT22;34586;53.616;10.032;2022-08-19T05:45:42;19.50;99.90
10873;DHT22;34586;53.616;10.032;2022-08-19T05:48:10;19.50;99.90
10873;DHT22;34586;53.616;10.032;2022-08-19T05:50:38;19.50;99.90
10873;DHT22;34586;53.616;10.032;2022-08-19T05:53:04;19.50;99.90
10873;DHT22;34586;53.616;10.032;2022-08-19T05:55:30;19.50;99.90
10873;DHT22;34586;53.616;10.032;2022-08-19T05:57:56;19.50;99.90
10873;DHT22;34586;53.616;10.032;2022-08-19T06:00:22;19.60;99.90
10873;DHT22;34586;53.616;10.032;2022-08-19T06:02:48;19.50;99.90
10873;DHT22;34586;53.616;10.032;2022-08-19T06:05:14;19.50;99.90
10873;DHT22;34586;53.616;10.032;2022-08-19T06:07:39;19.50;99.90
10873;DHT22;34586;53.616;10.032;2022-08-19T06:10:07;19.50;99.90
10873;DHT22;34586;53.616;10.032;2022-08-19T06:12:35;19.50;99.90
10873;DHT22;34586;53.616;10.032;2022-08-19T06:15:04;19.50;99.90
10873;DHT22;34586;53.616;10.032;2022-08-19T06:17:30;19.50;99.90
10873;DHT22;34586;53.616;10.032;2022-08-19T06:19:56;19.50;99.90
10873;DHT22;34586;53.616;10.032;2022-08-19T06:22:23;19.40;99.90
10873;DHT22;34586;53.616;10.032;2022-08-19T06:24:49;19.60;99.90
10873;DHT22;34586;53.616;10.032;2022-08-19T06:27:18;19.60;99.90
10873;DHT22;34586;53.616;10.032;2022-08-19T06:29:43;19.60;99.90
10873;DHT22;34586;53.616;10.032;2022-08-19T06:32:12;19.60;99.90
10873;DHT22;34586;53.616;10.032;2022-08-19T06:34:40;19.60;99.90
10873;DHT22;34586;53.616;10.032;2022-08-19T06:37:06;19.70;99.90
10873;DHT22;34586;53.616;10.032;2022-08-19T06:39:35;19.70;99.90
10873;DHT22;34586;53.616;10.032;2022-08-19T06:42:03;19.80;99.90
10873;DHT22;34586;53.616;10.032;2022-08-19T06:44:34;19.80;99.90
10873;DHT22;34586;53.616;10.032;2022-08-19T06:47:03;19.90;99.90
10873;DHT22;34586;53.616;10.032;2022-08-19T06:49:29;19.90;99.90
10873;DHT22;34586;53.616;10.032;2022-08-19T06:51:58;19.90;99.90
10873;DHT22;34586;53.616;10.032;2022-08-19T06:54:25;20.00;99.30
10873;DHT22;34586;53.616;10.032;2022-08-19T06:56:51;20.00;92.80
10873;DHT22;34586;53.616;10.032;2022-08-19T06:59:21;20.00;94.60
10873;DHT22;34586;53.616;10.032;2022-08-19T07:01:52;19.90;95.40
10873;DHT22;34586;53.616;10.032;2022-08-19T07:04:21;19.90;96.90
10873;DHT22;34586;53.616;10.032;2022-08-19T07:06:48;19.90;95.90
10873;DHT22;34586;53.616;10.032;2022-08-19T07:09:16;20.20;99.90
10873;DHT22;34586;53.616;10.032;2022-08-19T07:11:47;19.90;98.40
10873;DHT22;34586;53.616;10.032;2022-08-19T07:14:13;19.90;96.40
10873;DHT22;34586;53.616;10.032;2022-08-19T07:16:40;20.00;92.70
10873;DHT22;34586;53.616;10.032;2022-08-19T07:19:05;20.00;94.90
10873;DHT22;34586;53.616;10.032;2022-08-19T07:21:31;20.00;92.20
10873;DHT22;34586;53.616;10.032;2022-08-19T07:23:59;20.00;94.00
10873;DHT22;34586;53.616;10.032;2022-08-19T07:26:31;19.90;97.30
10873;DHT22;34586;53.616;10.032;2022-08-19T07:28:58;19.90;97.70
10873;DHT22;34586;53.616;10.032;2022-08-19T07:31:27;20.00;93.40
10873;DHT22;34586;53.616;10.032;2022-08-19T07:33:54;20.00;82.20
10873;DHT22;34586;53.616;10.032;2022-08-19T07:36:25;20.10;90.40
10873;DHT22;34586;53.616;10.032;2022-08-19T07:38:54;20.10;72.60
10873;DHT22;34586;53.616;10.032;2022-08-19T07:41:24;20.20;66.60
10873;DHT22;34586;53.616;10.032;2022-08-19T07:43:51;20.30;48.90
10873;DHT22;34586;53.616;10.032;2022-08-19T07:46:18;20.40;39.70
10873;DHT22;34586;53.616;10.032;2022-08-19T07:48:46;20.50;17.40
10873;DHT22;34586;53.616;10.032;2022-08-19T07:51:14;20.60;27.70
10873;DHT22;34586;53.616;10.032;2022-08-19T07:53:41;20.70;11.90
10873;DHT22;34586;53.616;10.032;2022-08-19T07:56:07;20.80;1.00
10873;DHT22;34586;53.616;10.032;2022-08-19T07:58:36;20.90;1.00
10873;DHT22;34586;53.616;10.032;2022-08-19T08:01:04;20.80;1.00
10873;DHT22;34586;53.616;10.032;2022-08-19T08:03:30;20.80;1.00
10873;DHT22;34586;53.616;10.032;2022-08-19T08:06:15;20.90;1.00
10873;DHT22;34586;53.616;10.032;2022-08-19T08:09:00;20.90;1.00
10873;DHT22;34586;53.616;10.032;2022-08-19T08:11:49;20.80;1.00
10873;DHT22;34586;53.616;10.032;2022-08-19T08:14:40;20.70;1.00
10873;DHT22;34586;53.616;10.032;2022-08-19T08:17:07;20.60;2.90
10873;DHT22;34586;53.616;10.032;2022-08-19T08:19:33;20.60;22.10
10873;DHT22;34586;53.616;10.032;2022-08-19T08:22:00;20.60;15.50
10873;DHT22;34586;53.616;10.032;2022-08-19T08:24:28;20.60;14.10
10873;DHT22;34586;53.616;10.032;2022-08-19T08:26:54;20.50;20.90
10873;DHT22;34586;53.616;10.032;2022-08-19T08:29:20;20.50;14.70
10873;DHT22;34586;53.616;10.032;2022-08-19T08:31:46;20.50;14.50
10873;DHT22;34586;53.616;10.032;2022-08-19T08:34:13;20.50;20.80
10873;DHT22;34586;53.616;10.032;2022-08-19T08:36:42;20.50;34.20
10873;DHT22;34586;53.616;10.032;2022-08-19T08:39:09;20.60;27.90
10873;DHT22;34586;53.616;10.032;2022-08-19T08:42:01;20.60;33.30
10873;DHT22;34586;53.616;10.032;2022-08-19T08:44:46;20.60;15.50
10873;DHT22;34586;53.616;10.032;2022-08-19T08:47:17;20.60;10.60
10873;DHT22;34586;53.616;10.032;2022-08-19T08:50:06;20.70;1.00
10873;DHT22;34586;53.616;10.032;2022-08-19T08:52:36;20.70;1.00
10873;DHT22;34586;53.616;10.032;2022-08-19T08:55:10;20.80;1.00
10873;DHT22;34586;53.616;10.032;2022-08-19T09:00:21;20.80;1.00
10873;DHT22;34586;53.616;10.032;2022-08-19T09:02:47;20.90;1.00
10873;DHT22;34586;53.616;10.032;2022-08-19T09:05:13;20.80;1.00
10873;DHT22;34586;53.616;10.032;2022-08-19T09:16:12;20.80;5.80
10873;DHT22;34586;53.616;10.032;2022-08-19T09:18:47;20.90;3.80
10873;DHT22;34586;53.616;10.032;2022-08-19T09:21:15;20.90;10.60
10873;DHT22;34586;53.616;10.032;2022-08-19T09:23:41;20.90;1.00
10873;DHT22;34586;53.616;10.032;2022-08-19T09:26:14;21.00;1.00
10873;DHT22;34586;53.616;10.032;2022-08-19T09:28:41;20.90;1.00
10873;DHT22;34586;53.616;10.032;2022-08-19T09:31:20;20.90;1.00
10873;DHT22;34586;53.616;10.032;2022-08-19T09:33:47;20.90;2.30
10873;DHT22;34586;53.616;10.032;2022-08-19T09:36:19;21.00;2.70
10873;DHT22;34586;53.616;10.032;2022-08-19T09:38:45;21.00;1.00
10873;DHT22;34586;53.616;10.032;2022-08-19T09:41:17;21.10;1.00
10873;DHT22;34586;53.616;10.032;2022-08-19T09:43:46;21.20;1.00
10873;DHT22;34586;53.616;10.032;2022-08-19T09:46:12;21.20;1.00
10873;DHT22;34586;53.616;10.032;2022-08-19T09:48:39;21.20;1.00
10873;DHT22;34586;53.616;10.032;2022-08-19T09:51:08;21.20;1.00
10873;DHT22;34586;53.616;10.032;2022-08-19T09:53:35;21.30;1.00
10873;DHT22;34586;53.616;10.032;2022-08-19T09:56:02;21.30;1.00
10873;DHT22;34586;53.616;10.032;2022-08-19T09:58:27;21.30;1.00
10873;DHT22;34586;53.616;10.032;2022-08-19T10:00:55;21.30;1.00
10873;DHT22;34586;53.616;10.032;2022-08-19T10:03:22;21.30;1.00
10873;DHT22;34586;53.616;10.032;2022-08-19T10:05:48;21.20;1.00
10873;DHT22;34586;53.616;10.032;2022-08-19T10:08:19;21.20;1.00
10873;DHT22;34586;53.616;10.032;2022-08-19T10:10:45;21.20;1.00
10873;DHT22;34586;53.616;10.032;2022-08-19T10:13:13;21.30;1.00
10873;DHT22;34586;53.616;10.032;2022-08-19T10:15:39;21.30;1.00
10873;DHT22;34586;53.616;10.032;2022-08-19T10:18:06;21.30;1.00
10873;DHT22;34586;53.616;10.032;2022-08-19T10:20:32;21.30;1.00
10873;DHT22;34586;53.616;10.032;2022-08-19T10:22:58;21.30;1.00
10873;DHT22;34586;53.616;10.032;2022-08-19T10:25:26;21.30;1.00
10873;DHT22;34586;53.616;10.032;2022-08-19T10:27:52;21.30;1.00
10873;DHT22;34586;53.616;10.032;2022-08-19T10:30:18;21.50;1.00
10873;DHT22;34586;53.616;10.032;2022-08-19T10:32:44;21.50;1.00
10873;DHT22;34586;53.616;10.032;2022-08-19T10:35:11;21.60;1.00
10873;DHT22;34586;53.616;10.032;2022-08-19T10:37:37;21.60;1.00
10873;DHT22;34586;53.616;10.032;2022-08-19T10:40:05;21.50;1.00
10873;DHT22;34586;53.616;10.032;2022-08-19T10:42:33;21.50;1.00
10873;DHT22;34586;53.616;10.032;2022-08-19T10:44:59;21.50;1.00
10873;DHT22;34586;53.616;10.032;2022-08-19T10:47:25;21.60;1.00
10873;DHT22;34586;53.616;10.032;2022-08-19T10:49:54;21.70;1.00
10873;DHT22;34586;53.616;10.032;2022-08-19T10:52:46;21.60;1.00
10873;DHT22;34586;53.616;10.032;2022-08-19T10:55:12;21.60;1.00
10873;DHT22;34586;53.616;10.032;2022-08-19T10:57:56;21.70;1.00
10873;DHT22;34586;53.616;10.032;2022-08-19T11:00:23;21.80;1.00
10873;DHT22;34586;53.616;10.032;2022-08-19T11:02:49;21.80;1.00
10873;DHT22;34586;53.616;10.032;2022-08-19T11:05:15;21.80;1.00
10873;DHT22;34586;53.616;10.032;2022-08-19T11:07:42;21.90;1.00
10873;DHT22;34586;53.616;10.032;2022-08-19T11:10:11;21.80;1.00
10873;DHT22;34586;53.616;10.032;2022-08-19T11:12:38;21.90;1.00
10873;DHT22;34586;53.616;10.032;2022-08-19T11:15:06;21.90;1.00
10873;DHT22;34586;53.616;10.032;2022-08-19T11:17:33;21.90;1.00
10873;DHT22;34586;53.616;10.032;2022-08-19T11:19:58;21.80;1.00
10873;DHT22;34586;53.616;10.032;2022-08-19T11:22:27;21.80;1.00
10873;DHT22;34586;53.616;10.032;2022-08-19T11:24:53;21.80;1.00
10873;DHT22;34586;53.616;10.032;2022-08-19T11:27:18;21.80;1.00
10873;DHT22;34586;53.616;10.032;2022-08-19T11:29:44;21.90;1.00
10873;DHT22;34586;53.616;10.032;2022-08-19T11:32:47;22.00;1.00
10873;DHT22;34586;53.616;10.032;2022-08-19T11:35:29;22.30;1.00
10873;DHT22;34586;53.616;10.032;2022-08-19T11:37:54;22.60;1.00
10873;DHT22;34586;53.616;10.032;2022-08-19T11:40:23;22.80;99.90
10873;DHT22;34586;53.616;10.032;2022-08-19T11:42:48;22.90;99.90
10873;DHT22;34586;53.616;10.032;2022-08-19T11:45:26;22.90;99.90
10873;DHT22;34586;53.616;10.032;2022-08-19T11:47:52;23.10;97.90
10873;DHT22;34586;53.616;10.032;2022-08-19T11:50:18;23.20;59.60
10873;DHT22;34586;53.616;10.032;2022-08-19T11:52:44;23.30;99.90
10873;DHT22;34586;53.616;10.032;2022-08-19T11:55:11;23.50;99.90
10873;DHT22;34586;53.616;10.032;2022-08-19T11:57:37;23.50;99.90
10873;DHT22;34586;53.616;10.032;2022-08-19T12:00:04;23.70;99.90
10873;DHT22;34586;53.616;10.032;2022-08-19T12:02:32;23.90;1.00
10873;DHT22;34586;53.616;10.032;2022-08-19T12:04:57;24.00;99.90
10873;DHT22;34586;53.616;10.032;2022-08-19T12:07:23;24.10;88.20
10873;DHT22;34586;53.616;10.032;2022-08-19T12:09:50;24.00;99.90
10873;DHT22;34586;53.616;10.032;2022-08-19T12:12:16;23.90;1.00
10873;DHT22;34586;53.616;10.032;2022-08-19T12:14:41;23.80;99.90
10873;DHT22;34586;53.616;10.032;2022-08-19T12:17:07;23.80;5.40
10873;DHT22;34586;53.616;10.032;2022-08-19T12:19:36;23.60;99.90
10873;DHT22;34586;53.616;10.032;2022-08-19T12:22:02;23.40;1.00
10873;DHT22;34586;53.616;10.032;2022-08-19T12:24:31;23.20;1.00
10873;DHT22;34586;53.616;10.032;2022-08-19T12:26:57;23.30;1.00
10873;DHT22;34586;53.616;10.032;2022-08-19T12:29:24;23.30;1.00
10873;DHT22;34586;53.616;10.032;2022-08-19T12:31:54;23.30;1.00
10873;DHT22;34586;53.616;10.032;2022-08-19T12:34:20;23.50;1.00
10873;DHT22;34586;53.616;10.032;2022-08-19T12:36:45;23.80;99.90
10873;DHT22;34586;53.616;10.032;2022-08-19T12:39:11;24.10;99.90
10873;DHT22;34586;53.616;10.032;2022-08-19T12:41:37;24.30;1.00
10873;DHT22;34586;53.616;10.032;2022-08-19T12:44:03;24.40;1.00
10873;DHT22;34586;53.616;10.032;2022-08-19T12:46:28;24.50;1.00
10873;DHT22;34586;53.616;10.032;2022-08-19T12:48:54;24.60;1.00
10873;DHT22;34586;53.616;10.032;2022-08-19T12:51:19;24.70;1.00
10873;DHT22;34586;53.616;10.032;2022-08-19T12:53:46;24.80;1.00
10873;DHT22;34586;53.616;10.032;2022-08-19T12:56:12;25.10;1.00
10873;DHT22;34586;53.616;10.032;2022-08-19T12:58:41;25.30;1.00
10873;DHT22;34586;53.616;10.032;2022-08-19T13:01:12;25.40;1.00
10873;DHT22;34586;53.616;10.032;2022-08-19T13:03:39;25.40;1.00
10873;DHT22;34586;53.616;10.032;2022-08-19T13:06:05;25.20;99.90
10873;DHT22;34586;53.616;10.032;2022-08-19T13:08:31;25.20;25.60
10873;DHT22;34586;53.616;10.032;2022-08-19T13:10:57;25.10;1.00
10873;DHT22;34586;53.616;10.032;2022-08-19T13:13:23;24.90;1.00
10873;DHT22;34586;53.616;10.032;2022-08-19T13:15:51;24.60;1.00
10873;DHT22;34586;53.616;10.032;2022-08-19T13:18:16;24.30;1.00
10873;DHT22;34586;53.616;10.032;2022-08-19T13:20:42;24.20;1.00
10873;DHT22;34586;53.616;10.032;2022-08-19T13:23:08;24.10;99.90
10873;DHT22;34586;53.616;10.032;2022-08-19T13:25:34;24.00;1.00
10873;DHT22;34586;53.616;10.032;2022-08-19T13:28:01;24.00;1.00
10873;DHT22;34586;53.616;10.032;2022-08-19T13:30:27;24.00;1.00
10873;DHT22;34586;53.616;10.032;2022-08-19T13:33:11;24.10;1.00
10873;DHT22;34586;53.616;10.032;2022-08-19T13:38:06;24.40;73.20
10873;DHT22;34586;53.616;10.032;2022-08-19T13:40:32;24.30;1.00
10873;DHT22;34586;53.616;10.032;2022-08-19T13:43:03;24.20;1.00
10873;DHT22;34586;53.616;10.032;2022-08-19T13:45:32;24.20;1.00
10873;DHT22;34586;53.616;10.032;2022-08-19T13:48:02;24.20;40.80
10873;DHT22;34586;53.616;10.032;2022-08-19T13:50:32;24.30;99.90
10873;DHT22;34586;53.616;10.032;2022-08-19T13:52:59;24.40;99.90
10873;DHT22;34586;53.616;10.032;2022-08-19T13:55:25;24.40;99.90
10873;DHT22;34586;53.616;10.032;2022-08-19T13:57:54;24.30;1.00
10873;DHT22;34586;53.616;10.032;2022-08-19T14:00:21;24.30;99.90
10873;DHT22;34586;53.616;10.032;2022-08-19T14:02:50;24.30;1.00
10873;DHT22;34586;53.616;10.032;2022-08-19T14:05:17;24.30;1.00
10873;DHT22;34586;53.616;10.032;2022-08-19T14:07:43;24.30;99.90
10873;DHT22;34586;53.616;10.032;2022-08-19T14:10:10;24.20;1.00
10873;DHT22;34586;53.616;10.032;2022-08-19T14:12:36;24.10;99.90
10873;DHT22;34586;53.616;10.032;2022-08-19T14:15:04;24.10;99.90
10873;DHT22;34586;53.616;10.032;2022-08-19T14:17:30;24.10;1.00
10873;DHT22;34586;53.616;10.032;2022-08-19T14:20:00;24.00;99.90
10873;DHT22;34586;53.616;10.032;2022-08-19T14:22:32;24.00;99.90
10873;DHT22;34586;53.616;10.032;2022-08-19T14:25:00;24.00;1.00
10873;DHT22;34586;53.616;10.032;2022-08-19T14:27:26;23.90;99.90
10873;DHT22;34586;53.616;10.032;2022-08-19T14:29:52;23.90;99.90
10873;DHT22;34586;53.616;10.032;2022-08-19T14:32:17;23.90;1.00
10873;DHT22;34586;53.616;10.032;2022-08-19T14:34:43;23.90;99.90
10873;DHT22;34586;53.616;10.032;2022-08-19T14:37:11;23.90;99.90
10873;DHT22;34586;53.616;10.032;2022-08-19T14:39:37;23.80;1.00
10873;DHT22;34586;53.616;10.032;2022-08-19T14:42:07;23.80;99.90
10873;DHT22;34586;53.616;10.032;2022-08-19T14:44:33;23.70;1.00
10873;DHT22;34586;53.616;10.032;2022-08-19T14:46:59;23.70;1.00
10873;DHT22;34586;53.616;10.032;2022-08-19T14:49:25;23.80;1.00
10873;DHT22;34586;53.616;10.032;2022-08-19T14:51:50;23.90;99.90
10873;DHT22;34586;53.616;10.032;2022-08-19T14:54:16;23.90;99.90
10873;DHT22;34586;53.616;10.032;2022-08-19T14:56:42;24.00;1.00
10873;DHT22;34586;53.616;10.032;2022-08-19T14:59:07;24.00;56.50
10873;DHT22;34586;53.616;10.032;2022-08-19T15:01:33;24.00;1.00
10873;DHT22;34586;53.616;10.032;2022-08-19T15:03:58;24.00;99.90
10873;DHT22;34586;53.616;10.032;2022-08-19T15:06:25;24.00;99.90
10873;DHT22;34586;53.616;10.032;2022-08-19T15:08:51;24.00;99.90
10873;DHT22;34586;53.616;10.032;2022-08-19T15:11:19;23.90;72.20
10873;DHT22;34586;53.616;10.032;2022-08-19T15:13:46;23.90;76.20
10873;DHT22;34586;53.616;10.032;2022-08-19T15:16:14;23.90;1.00
10873;DHT22;34586;53.616;10.032;2022-08-19T15:18:41;23.90;1.00
10873;DHT22;34586;53.616;10.032;2022-08-19T15:21:11;23.90;99.90
10873;DHT22;34586;53.616;10.032;2022-08-19T15:23:44;23.90;1.00
10873;DHT22;34586;53.616;10.032;2022-08-19T15:26:10;23.90;1.00
10873;DHT22;34586;53.616;10.032;2022-08-19T15:28:36;24.00;99.90
10873;DHT22;34586;53.616;10.032;2022-08-19T15:31:02;24.00;1.00
10873;DHT22;34586;53.616;10.032;2022-08-19T15:33:31;24.00;1.00
10873;DHT22;34586;53.616;10.032;2022-08-19T15:35:57;24.10;1.00
10873;DHT22;34586;53.616;10.032;2022-08-19T15:38:23;24.20;1.00
10873;DHT22;34586;53.616;10.032;2022-08-19T15:40:51;24.50;1.00
10873;DHT22;34586;53.616;10.032;2022-08-19T15:43:18;24.70;1.00